EKRN

Bornholm Airport

Rønne, Denmark
METAR EKRN 212250Z AUTO 04003KT 9999NDV NCD 12/10 Q1022
Observed Flight Rules
Aug-21 @ 22:50 UTC (58 minutes ago)
Wind Clouds
40° at 3 knots
  • Clear skies
Temperatures Readings
Current 12°C / 54°F
Dewpoint 10°C / 50°F
Humidity 88%
Altimeter 30.18" Hg
Pressure 1022 hPa
Elevation 16
METAR EKRN 212250Z AUTO 04003KT 9999NDV NCD 12/10 Q1022
Observed Flight Rules
Aug-21 @ 22:50 UTC
(58 minutes ago)
Wind
40° at 3 knots
Clouds
  • Clear skies
Temperature Dewpoint
12°C / 54°F 10°C / 50°F
Humidity Altimeter Pressure
88% 30.18" Hg 1022 hPa